^^
WestSenecaWeather Station Historical Data
Daily Summary for January 13, 2017 Units:  English    Metric   Both
Daily Weekly Monthly Yearly Custom
  High: Low: Average:
Temperature: 33.3 °F 22.6 °F 27.4 °F
Dew Point: 30.1 °F 12.4 °F 18 °F
Humidity: 88% 52% 68%
Wind Speed: 19.6mph 0.0mph 8mph
Wind Gust: 19.6mph - -
Wind- - WSW
Pressure: 30.77 in 30.25 in -
Precipitation: 0.00 in    
Historical Graphs
 
 
Tabular Data for January 13, 2017
Time Temperature Dew Point Pressure Wind Wind Speed Wind Gust Humidity Rainfall Rate (Hourly) solar
00:03 33.3 °F 30.1 °F 30.25 in SW 11.5 mph 11.5 mph 88% 0.00 in 0.0 W/m2
00:08 33.3 °F 30.1 °F 30.25 in SW 7.0 mph 7.0 mph 88% 0.00 in 0.0 W/m2
00:13 33.3 °F 30.1 °F 30.25 in SW 11.5 mph 11.5 mph 88% 0.00 in 0.0 W/m2
00:18 33.2 °F 29.8 °F 30.25 in SW 12.7 mph 12.7 mph 87% 0.00 in 0.0 W/m2
00:23 33.2 °F 29.5 °F 30.25 in WSW 8.1 mph 8.1 mph 86% 0.00 in 0.0 W/m2
00:28 33.2 °F 29.5 °F 30.26 in SW 12.7 mph 12.7 mph 86% 0.00 in 0.0 W/m2
00:33 33.1 °F 29.4 °F 30.26 in WSW 15.0 mph 15.0 mph 86% 0.00 in 0.0 W/m2
00:38 33.0 °F 29.3 °F 30.26 in WSW 6.9 mph 6.9 mph 86% 0.00 in 0.0 W/m2
00:43 32.9 °F 29.2 °F 30.26 in WSW 10.4 mph 10.4 mph 86% 0.00 in 0.0 W/m2
00:48 32.7 °F 29.0 °F 30.26 in WSW 8.1 mph 8.1 mph 86% 0.00 in 0.0 W/m2
00:53 32.6 °F 28.6 °F 30.26 in West 11.5 mph 11.5 mph 85% 0.00 in 0.0 W/m2
00:58 32.4 °F 28.1 °F 30.28 in WSW 10.4 mph 10.4 mph 84% 0.00 in 0.0 W/m2
01:03 32.2 °F 27.9 °F 30.27 in WSW 11.5 mph 11.5 mph 84% 0.00 in 0.0 W/m2
01:08 32.1 °F 28.1 °F 30.28 in SW 8.1 mph 8.1 mph 85% 0.00 in 0.0 W/m2
01:13 31.9 °F 27.6 °F 30.28 in West 11.5 mph 11.5 mph 84% 0.00 in 0.0 W/m2
01:18 31.8 °F 27.8 °F 30.28 in WSW 15.0 mph 15.0 mph 85% 0.00 in 0.0 W/m2
01:23 31.7 °F 27.7 °F 30.27 in West 11.5 mph 11.5 mph 85% 0.00 in 0.0 W/m2
01:28 31.7 °F 28.0 °F 30.28 in West 9.2 mph 9.2 mph 86% 0.00 in 0.0 W/m2
01:33 31.7 °F 28.0 °F 30.28 in West 11.5 mph 11.5 mph 86% 0.00 in 0.0 W/m2
01:38 31.8 °F 28.1 °F 30.28 in SW 12.7 mph 12.7 mph 86% 0.00 in 0.0 W/m2
01:43 31.8 °F 27.8 °F 30.29 in WSW 5.8 mph 5.8 mph 85% 0.00 in 0.0 W/m2
01:48 31.8 °F 27.8 °F 30.30 in SW 11.5 mph 11.5 mph 85% 0.00 in 0.0 W/m2
01:53 31.7 °F 27.1 °F 30.31 in West 16.1 mph 16.1 mph 83% 0.00 in 0.0 W/m2
01:58 31.6 °F 27.0 °F 30.31 in SW 11.5 mph 11.5 mph 83% 0.00 in 0.0 W/m2
02:03 31.4 °F 27.1 °F 30.31 in WSW 9.2 mph 9.2 mph 84% 0.00 in 0.0 W/m2
02:08 31.3 °F 27.0 °F 30.31 in West 12.7 mph 12.7 mph 84% 0.00 in 0.0 W/m2
02:13 31.3 °F 27.0 °F 30.32 in SSW 10.4 mph 10.4 mph 84% 0.00 in 0.0 W/m2
02:18 31.1 °F 26.5 °F 30.33 in SSW 19.6 mph 19.6 mph 83% 0.00 in 0.0 W/m2
02:23 31.0 °F 26.4 °F 30.33 in SSW 6.9 mph 6.9 mph 83% 0.00 in 0.0 W/m2
02:28 30.9 °F 25.8 °F 30.34 in SW 9.2 mph 9.2 mph 81% 0.00 in 0.0 W/m2
02:33 31.0 °F 25.6 °F 30.35 in West 15.0 mph 15.0 mph 80% 0.00 in 0.0 W/m2
02:38 30.9 °F 24.5 °F 30.35 in SW 18.4 mph 18.4 mph 77% 0.00 in 0.0 W/m2
02:43 30.9 °F 25.2 °F 30.35 in West 11.5 mph 11.5 mph 79% 0.00 in 0.0 W/m2
02:48 30.9 °F 24.8 °F 30.35 in West 11.5 mph 11.5 mph 78% 0.00 in 0.0 W/m2
02:53 31.0 °F 25.2 °F 30.36 in South 10.0 mph 10.0 mph 79% 0.00 in 0.0 W/m2
02:58 31.0 °F 25.9 °F 30.36 in South 10.0 mph 10.0 mph 81% 0.00 in 0.0 W/m2
03:03 30.9 °F 24.2 °F 30.37 in SW 16.1 mph 16.1 mph 76% 0.00 in 0.0 W/m2
03:08 30.8 °F 24.4 °F 30.37 in SSW 13.8 mph 13.8 mph 77% 0.00 in 0.0 W/m2
03:13 30.6 °F 23.6 °F 30.38 in WNW 19.6 mph 19.6 mph 75% 0.00 in 0.0 W/m2
03:14 30.6 °F 23.6 °F 30.38 in SSW 16.1 mph 16.1 mph 75% 0.00 in 0.0 W/m2
03:19 30.4 °F 22.8 °F 30.38 in SW 15.0 mph 15.0 mph 73% 0.00 in 0.0 W/m2
03:24 30.1 °F 22.5 °F 30.38 in SW 17.3 mph 17.3 mph 73% 0.00 in 0.0 W/m2
03:29 29.9 °F 22.3 °F 30.38 in WNW 19.6 mph 19.6 mph 73% 0.00 in 0.0 W/m2
03:34 29.8 °F 22.5 °F 30.39 in West 10.0 mph 10.0 mph 74% 0.00 in 0.0 W/m2
03:39 29.8 °F 22.5 °F 30.39 in West 11.5 mph 11.5 mph 74% 0.00 in 0.0 W/m2
03:44 29.7 °F 22.4 °F 30.40 in West 11.5 mph 11.5 mph 74% 0.00 in 0.0 W/m2
03:49 29.7 °F 22.7 °F 30.40 in WSW 13.8 mph 13.8 mph 75% 0.00 in 0.0 W/m2
03:54 29.7 °F 22.7 °F 30.41 in WNW 8.1 mph 8.1 mph 75% 0.00 in 0.0 W/m2
03:59 29.7 °F 22.7 °F 30.41 in SW 13.8 mph 13.8 mph 75% 0.00 in 0.0 W/m2
04:04 29.7 °F 23.1 °F 30.41 in WSW 8.1 mph 8.1 mph 76% 0.00 in 0.0 W/m2
04:09 29.7 °F 23.1 °F 30.42 in West 6.9 mph 6.9 mph 76% 0.00 in 0.0 W/m2
04:14 29.8 °F 23.5 °F 30.42 in West 13.8 mph 13.8 mph 77% 0.00 in 0.0 W/m2
04:19 29.8 °F 22.8 °F 30.42 in WNW 13.8 mph 13.8 mph 75% 0.00 in 0.0 W/m2
04:24 29.7 °F 23.1 °F 30.43 in WSW 9.0 mph 9.0 mph 76% 0.00 in 0.0 W/m2
04:29 29.7 °F 23.1 °F 30.43 in WSW 6.9 mph 6.9 mph 76% 0.00 in 0.0 W/m2
04:34 29.7 °F 23.1 °F 30.43 in SSW 7.0 mph 7.0 mph 76% 0.00 in 0.0 W/m2
04:39 29.7 °F 22.4 °F 30.43 in SW 10.4 mph 10.4 mph 74% 0.00 in 0.0 W/m2
04:44 29.7 °F 22.7 °F 30.43 in WSW 6.9 mph 6.9 mph 75% 0.00 in 0.0 W/m2
04:49 29.7 °F 22.7 °F 30.44 in WNW 8.1 mph 8.1 mph 75% 0.00 in 0.0 W/m2
04:54 29.8 °F 22.8 °F 30.44 in SSW 5.8 mph 5.8 mph 75% 0.00 in 0.0 W/m2
04:59 29.8 °F 22.5 °F 30.44 in West 11.0 mph 11.0 mph 74% 0.00 in 0.0 W/m2
05:04 29.8 °F 22.5 °F 30.45 in WSW 9.2 mph 9.2 mph 74% 0.00 in 0.0 W/m2
05:09 29.8 °F 22.5 °F 30.45 in WNW 9.2 mph 9.2 mph 74% 0.00 in 0.0 W/m2
05:14 29.8 °F 22.5 °F 30.45 in SSW 6.9 mph 6.9 mph 74% 0.00 in 0.0 W/m2
05:19 29.7 °F 22.4 °F 30.45 in West 12.7 mph 12.7 mph 74% 0.00 in 0.0 W/m2
05:24 29.5 °F 22.2 °F 30.46 in WSW 10.4 mph 10.4 mph 74% 0.00 in 0.0 W/m2
05:29 29.2 °F 21.0 °F 30.47 in NW 11.5 mph 11.5 mph 71% 0.00 in 0.0 W/m2
05:34 28.9 °F 20.3 °F 30.47 in West 12.7 mph 12.7 mph 70% 0.00 in 0.0 W/m2
05:39 28.7 °F 20.5 °F 30.47 in WNW 11.5 mph 11.5 mph 71% 0.00 in 0.0 W/m2
05:44 28.6 °F 20.4 °F 30.47 in WSW 9.2 mph 9.2 mph 71% 0.00 in 0.0 W/m2
05:49 28.5 °F 20.0 °F 30.48 in NW 13.8 mph 13.8 mph 70% 0.00 in 0.0 W/m2
05:54 28.4 °F 20.5 °F 30.49 in NW 8.0 mph 8.0 mph 72% 0.00 in 0.0 W/m2
05:59 28.2 °F 20.0 °F 30.49 in West 12.7 mph 12.7 mph 71% 0.00 in 0.0 W/m2
06:04 28.0 °F 19.8 °F 30.49 in WNW 11.5 mph 11.5 mph 71% 0.00 in 0.0 W/m2
06:09 27.8 °F 19.3 °F 30.50 in WNW 17.3 mph 17.3 mph 70% 0.00 in 0.0 W/m2
06:14 27.6 °F 19.1 °F 30.50 in WNW 15.0 mph 15.0 mph 70% 0.00 in 0.0 W/m2
06:19 27.3 °F 18.8 °F 30.51 in West 11.5 mph 11.5 mph 70% 0.00 in 0.0 W/m2
06:24 27.1 °F 18.3 °F 30.51 in WNW 15.0 mph 15.0 mph 69% 0.00 in 0.0 W/m2
06:29 27.0 °F 18.5 °F 30.51 in West 10.4 mph 10.4 mph 70% 0.00 in 0.0 W/m2
06:34 26.8 °F 18.3 °F 30.52 in West 8.1 mph 8.1 mph 70% 0.00 in 0.0 W/m2
06:39 26.8 °F 18.7 °F 30.52 in West 11.0 mph 11.0 mph 71% 0.00 in 0.0 W/m2
06:44 26.8 °F 18.3 °F 30.53 in WNW 9.0 mph 9.0 mph 70% 0.00 in 0.0 W/m2
06:49 26.7 °F 18.2 °F 30.53 in NW 8.1 mph 8.1 mph 70% 0.00 in 0.0 W/m2
06:54 26.6 °F 17.8 °F 30.53 in WSW 9.2 mph 9.2 mph 69% 0.00 in 0.0 W/m2
06:59 26.5 °F 17.7 °F 30.53 in WNW 14.0 mph 14.0 mph 69% 0.00 in 0.0 W/m2
07:04 26.4 °F 17.6 °F 30.54 in West 9.0 mph 9.0 mph 69% 0.00 in 0.0 W/m2
07:09 26.3 °F 17.5 °F 30.55 in WNW 10.4 mph 10.4 mph 69% 0.00 in 0.0 W/m2
07:14 26.1 °F 17.3 °F 30.55 in NW 11.5 mph 11.5 mph 69% 0.00 in 0.0 W/m2
07:19 26.1 °F 17.6 °F 30.55 in West 8.1 mph 8.1 mph 70% 0.00 in 0.0 W/m2
07:24 26.0 °F 17.6 °F 30.55 in NW 11.5 mph 11.5 mph 70% 0.00 in 0.0 W/m2
07:29 25.9 °F 17.5 °F 30.55 in WNW 13.8 mph 13.8 mph 70% 0.00 in 0.0 W/m2
07:34 25.8 °F 17.4 °F 30.56 in NW 8.1 mph 8.1 mph 70% 0.00 in 0.0 W/m2
07:39 25.7 °F 16.9 °F 30.56 in WNW 9.2 mph 9.2 mph 69% 0.00 in 0.0 W/m2
07:44 25.7 °F 17.3 °F 30.56 in NW 8.1 mph 8.1 mph 70% 0.00 in 0.0 W/m2
07:49 25.6 °F 17.2 °F 30.56 in West 12.0 mph 12.0 mph 70% 0.00 in 0.0 W/m2
07:54 25.6 °F 17.2 °F 30.56 in WNW 11.0 mph 11.0 mph 70% 0.00 in 0.0 W/m2
07:59 25.6 °F 16.8 °F 30.57 in WNW 8.1 mph 8.1 mph 69% 0.00 in 0.0 W/m2
08:04 25.5 °F 16.7 °F 30.57 in West 6.0 mph 6.2 mph 69% 0.00 in 0.0 W/m2
08:09 25.6 °F 16.5 °F 30.58 in West 11.5 mph 11.5 mph 68% 0.00 in 0.0 W/m2
08:14 25.7 °F 16.6 °F 30.59 in NW 7.0 mph 7.0 mph 68% 0.00 in 0.0 W/m2
08:19 25.8 °F 16.7 °F 30.59 in NW 11.5 mph 11.5 mph 68% 0.00 in 0.0 W/m2
08:24 25.8 °F 16.3 °F 30.60 in WNW 10.4 mph 10.4 mph 67% 0.00 in 0.0 W/m2
08:29 25.8 °F 16.3 °F 30.60 in West 11.5 mph 11.5 mph 67% 0.00 in 0.0 W/m2
08:34 25.8 °F 16.7 °F 30.61 in WNW 4.6 mph 4.6 mph 68% 0.00 in 0.0 W/m2
08:39 25.8 °F 16.3 °F 30.61 in WSW 6.9 mph 6.9 mph 67% 0.00 in 0.0 W/m2
08:44 25.7 °F 15.9 °F 30.61 in WNW 11.5 mph 11.5 mph 66% 0.00 in 0.0 W/m2
08:49 25.7 °F 15.6 °F 30.62 in NW 13.8 mph 13.8 mph 65% 0.00 in 0.0 W/m2
08:54 25.7 °F 15.9 °F 30.62 in West 5.8 mph 5.8 mph 66% 0.00 in 0.0 W/m2
08:59 26.0 °F 15.8 °F 30.62 in NW 11.5 mph 11.5 mph 65% 0.00 in 0.0 W/m2
09:04 26.2 °F 16.0 °F 30.63 in West 6.9 mph 6.9 mph 65% 0.00 in 0.0 W/m2
09:09 26.4 °F 16.2 °F 30.63 in WNW 5.8 mph 5.8 mph 65% 0.00 in 0.0 W/m2
09:14 26.6 °F 16.1 °F 30.63 in WNW 11.5 mph 11.5 mph 64% 0.00 in 0.0 W/m2
09:19 26.6 °F 15.7 °F 30.64 in WSW 9.2 mph 9.2 mph 63% 0.00 in 0.0 W/m2
09:24 26.7 °F 15.4 °F 30.64 in West 9.2 mph 9.2 mph 62% 0.00 in 0.0 W/m2
09:29 26.7 °F 15.8 °F 30.64 in NW 9.2 mph 9.2 mph 63% 0.00 in 0.0 W/m2
09:34 26.7 °F 15.8 °F 30.65 in West 11.5 mph 11.5 mph 63% 0.00 in 0.0 W/m2
09:39 27.0 °F 16.1 °F 30.65 in WNW 10.4 mph 10.4 mph 63% 0.00 in 0.0 W/m2
09:44 27.2 °F 16.3 °F 30.65 in West 6.9 mph 6.9 mph 63% 0.00 in 0.0 W/m2
09:49 27.3 °F 16.0 °F 30.66 in WSW 10.4 mph 10.4 mph 62% 0.00 in 0.0 W/m2
09:54 27.5 °F 16.5 °F 30.66 in WNW 5.8 mph 5.8 mph 63% 0.00 in 0.0 W/m2
09:59 27.4 °F 16.1 °F 30.66 in West 9.2 mph 9.2 mph 62% 0.00 in 0.0 W/m2
10:04 27.2 °F 16.3 °F 30.66 in NW 8.1 mph 8.1 mph 63% 0.00 in 0.0 W/m2
10:09 27.2 °F 16.3 °F 30.67 in WNW 10.4 mph 10.4 mph 63% 0.00 in 0.0 W/m2
10:14 27.3 °F 16.7 °F 30.67 in West 5.8 mph 5.8 mph 64% 0.00 in 0.0 W/m2
10:19 27.2 °F 17.0 °F 30.67 in WNW 9.2 mph 9.2 mph 65% 0.00 in 0.0 W/m2
10:24 27.0 °F 17.1 °F 30.67 in NNW 8.1 mph 8.1 mph 66% 0.00 in 0.0 W/m2
10:29 27.0 °F 17.1 °F 30.68 in WNW 9.2 mph 9.2 mph 66% 0.00 in 0.0 W/m2
10:34 27.0 °F 17.1 °F 30.68 in WNW 8.1 mph 8.1 mph 66% 0.00 in 0.0 W/m2
10:39 27.0 °F 16.8 °F 30.68 in WNW 9.2 mph 9.2 mph 65% 0.00 in 0.0 W/m2
10:44 27.1 °F 16.9 °F 30.68 in WNW 10.4 mph 10.4 mph 65% 0.00 in 0.0 W/m2
10:49 27.0 °F 16.8 °F 30.68 in NW 13.8 mph 13.8 mph 65% 0.00 in 0.0 W/m2
10:54 27.0 °F 16.8 °F 30.68 in NW 9.2 mph 9.2 mph 65% 0.00 in 0.0 W/m2
10:59 27.0 °F 16.4 °F 30.69 in West 11.5 mph 11.5 mph 64% 0.00 in 0.0 W/m2
11:04 27.5 °F 17.3 °F 30.69 in West 8.1 mph 8.1 mph 65% 0.00 in 0.0 W/m2
11:09 27.6 °F 16.6 °F 30.69 in WNW 10.4 mph 10.4 mph 63% 0.00 in 0.0 W/m2
11:14 27.2 °F 16.3 °F 30.69 in West 11.5 mph 11.5 mph 63% 0.00 in 0.0 W/m2
11:19 27.4 °F 16.4 °F 30.69 in West 11.5 mph 11.5 mph 63% 0.00 in 0.0 W/m2
11:24 27.5 °F 16.5 °F 30.69 in WNW 11.5 mph 11.5 mph 63% 0.00 in 0.0 W/m2
11:29 27.5 °F 15.8 °F 30.69 in NW 11.5 mph 11.5 mph 61% 0.00 in 0.0 W/m2
11:34 27.9 °F 16.2 °F 30.69 in West 10.0 mph 10.0 mph 61% 0.00 in 0.0 W/m2
11:39 27.8 °F 15.7 °F 30.69 in WNW 9.2 mph 9.2 mph 60% 0.00 in 0.0 W/m2
11:44 27.6 °F 15.1 °F 30.68 in WNW 11.5 mph 11.5 mph 59% 0.00 in 0.0 W/m2
11:49 27.7 °F 16.4 °F 30.69 in WNW 8.0 mph 8.0 mph 62% 0.00 in 0.0 W/m2
11:55 28.0 °F 15.9 °F 30.69 in NW 10.4 mph 10.4 mph 60% 0.00 in 0.0 W/m2
11:59 28.1 °F 14.4 °F 30.69 in WNW 9.2 mph 9.2 mph 56% 0.00 in 0.0 W/m2
12:04 28.4 °F 14.7 °F 30.68 in WNW 9.2 mph 9.2 mph 56% 0.00 in 0.0 W/m2
12:09 28.3 °F 14.2 °F 30.68 in WSW 8.1 mph 8.1 mph 55% 0.00 in 0.0 W/m2
12:15 28.4 °F 14.3 °F 30.68 in WNW 9.2 mph 9.2 mph 55% 0.00 in 0.0 W/m2
12:19 28.3 °F 13.8 °F 30.68 in WNW 10.4 mph 10.4 mph 54% 0.00 in 0.0 W/m2
12:24 28.5 °F 14.4 °F 30.68 in WNW 11.5 mph 11.5 mph 55% 0.00 in 0.0 W/m2
12:29 28.7 °F 13.7 °F 30.68 in NW 11.5 mph 11.5 mph 53% 0.00 in 0.0 W/m2
12:35 28.3 °F 13.8 °F 30.68 in NW 5.8 mph 5.8 mph 54% 0.00 in 0.0 W/m2
12:39 28.6 °F 14.9 °F 30.67 in West 6.9 mph 6.9 mph 56% 0.00 in 0.0 W/m2
12:44 28.7 °F 15.0 °F 30.68 in West 9.2 mph 9.2 mph 56% 0.00 in 0.0 W/m2
12:49 28.2 °F 14.5 °F 30.67 in West 8.0 mph 8.0 mph 56% 0.00 in 0.0 W/m2
12:55 28.5 °F 14.8 °F 30.68 in WNW 4.0 mph 4.0 mph 56% 0.00 in 0.0 W/m2
13:00 29.0 °F 15.2 °F 30.68 in WNW 6.9 mph 6.9 mph 56% 0.00 in 0.0 W/m2
13:05 29.0 °F 14.8 °F 30.68 in NW 6.9 mph 6.9 mph 55% 0.00 in 0.0 W/m2
13:10 28.6 °F 14.5 °F 30.68 in WNW 7.0 mph 7.0 mph 55% 0.00 in 0.0 W/m2
13:15 28.4 °F 15.1 °F 30.68 in WNW 8.1 mph 8.1 mph 57% 0.00 in 0.0 W/m2
13:20 28.5 °F 15.2 °F 30.68 in West 6.9 mph 6.9 mph 57% 0.00 in 0.0 W/m2
13:25 28.6 °F 16.1 °F 30.68 in WNW 7.0 mph 7.0 mph 59% 0.00 in 0.0 W/m2
13:30 28.3 °F 15.0 °F 30.67 in WNW 5.8 mph 5.8 mph 57% 0.00 in 0.0 W/m2
13:35 28.4 °F 14.7 °F 30.67 in WSW 6.9 mph 6.9 mph 56% 0.00 in 0.0 W/m2
13:40 28.7 °F 15.0 °F 30.67 in West 7.0 mph 12.0 mph 56% 0.00 in 0.0 W/m2
13:45 28.9 °F 15.2 °F 30.67 in West 3.5 mph 3.5 mph 56% 0.00 in 0.0 W/m2
13:50 29.2 °F 15.0 °F 30.67 in West 9.2 mph 9.2 mph 55% 0.00 in 0.0 W/m2
13:55 28.8 °F 14.2 °F 30.67 in West 11.5 mph 11.5 mph 54% 0.00 in 0.0 W/m2
14:00 28.6 °F 14.5 °F 30.68 in WNW 6.9 mph 6.9 mph 55% 0.00 in 0.0 W/m2
14:05 28.8 °F 14.2 °F 30.68 in West 5.8 mph 5.8 mph 54% 0.00 in 0.0 W/m2
14:10 29.0 °F 15.2 °F 30.68 in West 12.0 mph 12.0 mph 56% 0.00 in 0.0 W/m2
14:15 28.8 °F 14.6 °F 30.68 in WNW 4.6 mph 4.6 mph 55% 0.00 in 0.0 W/m2
14:20 28.8 °F 14.6 °F 30.68 in West 9.2 mph 9.2 mph 55% 0.00 in 0.0 W/m2
14:25 28.8 °F 15.0 °F 30.68 in West 5.0 mph 10.0 mph 56% 0.00 in 0.0 W/m2
14:30 28.6 °F 14.5 °F 30.68 in WNW 6.9 mph 6.9 mph 55% 0.00 in 0.0 W/m2
14:35 28.6 °F 14.4 °F 30.68 in WNW 2.0 mph 7.0 mph 55% 0.00 in 0.0 W/m2
14:40 28.7 °F 14.1 °F 30.69 in NW 5.0 mph 5.8 mph 54% 0.00 in 0.0 W/m2
14:45 28.6 °F 14.0 °F 30.69 in NW 6.0 mph 9.0 mph 54% 0.00 in 0.0 W/m2
14:50 28.5 °F 13.1 °F 30.69 in WSW 3.5 mph 3.5 mph 52% 0.00 in 0.0 W/m2
14:55 28.7 °F 13.7 °F 30.69 in SW 4.0 mph 4.2 mph 53% 0.00 in 0.0 W/m2
15:00 28.7 °F 14.1 °F 30.69 in WNW 6.9 mph 6.9 mph 54% 0.00 in 0.0 W/m2
15:05 28.2 °F 13.7 °F 30.70 in WNW 10.4 mph 10.4 mph 54% 0.00 in 0.0 W/m2
15:10 28.0 °F 13.5 °F 30.70 in WNW 5.8 mph 5.8 mph 54% 0.00 in 0.0 W/m2
15:15 27.9 °F 13.4 °F 30.70 in WNW 7.0 mph 10.0 mph 54% 0.00 in 0.0 W/m2
15:20 27.8 °F 13.7 °F 30.70 in WNW 8.1 mph 8.1 mph 55% 0.00 in 0.0 W/m2
15:25 27.6 °F 13.9 °F 30.71 in WNW 3.0 mph 10.0 mph 56% 0.00 in 0.0 W/m2
15:30 27.6 °F 14.7 °F 30.71 in WNW 5.0 mph 8.0 mph 58% 0.00 in 0.0 W/m2
15:35 27.7 °F 14.8 °F 30.71 in WNW 2.0 mph 5.0 mph 58% 0.00 in 0.0 W/m2
15:40 27.7 °F 14.8 °F 30.72 in WNW 3.0 mph 10.0 mph 58% 0.00 in 0.0 W/m2
15:45 27.5 °F 13.8 °F 30.72 in NW 6.9 mph 6.9 mph 56% 0.00 in 0.0 W/m2
15:50 27.4 °F 12.9 °F 30.72 in NW 4.0 mph 4.0 mph 54% 0.00 in 0.0 W/m2
15:55 27.3 °F 13.2 °F 30.72 in NW 9.2 mph 9.2 mph 55% 0.00 in 0.0 W/m2
16:00 27.2 °F 13.6 °F 30.72 in NW 5.8 mph 5.8 mph 56% 0.00 in 0.0 W/m2
16:05 27.1 °F 12.6 °F 30.73 in WNW 6.0 mph 6.0 mph 54% 0.00 in 0.0 W/m2
16:10 27.0 °F 13.0 °F 30.73 in WNW 5.8 mph 5.8 mph 55% 0.00 in 0.0 W/m2
16:15 26.9 °F 13.3 °F 30.73 in NW 5.8 mph 5.8 mph 56% 0.00 in 0.0 W/m2
16:20 26.9 °F 13.3 °F 30.73 in WNW 8.1 mph 8.1 mph 56% 0.00 in 0.0 W/m2
16:25 26.8 °F 13.2 °F 30.73 in NNW 4.6 mph 4.6 mph 56% 0.00 in 0.0 W/m2
16:30 26.7 °F 13.5 °F 30.73 in NW 3.5 mph 3.6 mph 57% 0.00 in 0.0 W/m2
16:35 26.7 °F 13.5 °F 30.73 in NW 5.8 mph 5.8 mph 57% 0.00 in 0.0 W/m2
16:40 26.6 °F 13.0 °F 30.74 in West 8.1 mph 8.1 mph 56% 0.00 in 0.0 W/m2
16:45 26.5 °F 13.3 °F 30.74 in NW 3.5 mph 3.5 mph 57% 0.00 in 0.0 W/m2
16:50 26.4 °F 12.4 °F 30.74 in WNW 6.9 mph 6.9 mph 55% 0.00 in 0.0 W/m2
16:55 26.3 °F 12.7 °F 30.74 in West 6.9 mph 6.9 mph 56% 0.00 in 0.0 W/m2
17:00 26.2 °F 12.6 °F 30.74 in WNW 5.8 mph 5.8 mph 56% 0.00 in 0.0 W/m2
17:05 26.1 °F 12.5 °F 30.74 in WNW 6.9 mph 6.9 mph 56% 0.00 in 0.0 W/m2
17:10 26.0 °F 12.8 °F 30.74 in WNW 2.0 mph 6.0 mph 57% 0.00 in 0.0 W/m2
17:15 25.9 °F 12.7 °F 30.74 in WNW 2.0 mph 5.0 mph 57% 0.00 in 0.0 W/m2
17:20 25.8 °F 13.0 °F 30.74 in WNW 2.0 mph 4.0 mph 58% 0.00 in 0.0 W/m2
17:25 25.7 °F 13.3 °F 30.74 in WNW 1.0 mph 4.0 mph 59% 0.00 in 0.0 W/m2
17:30 25.7 °F 13.3 °F 30.75 in WNW 3.5 mph 3.5 mph 59% 0.00 in 0.0 W/m2
17:35 25.7 °F 13.3 °F 30.75 in WNW 3.5 mph 3.5 mph 59% 0.00 in 0.0 W/m2
17:40 25.6 °F 14.4 °F 30.75 in WNW 2.3 mph 2.3 mph 62% 0.00 in 0.0 W/m2
17:45 25.6 °F 14.0 °F 30.75 in WNW 5.8 mph 5.8 mph 61% 0.00 in 0.0 W/m2
17:50 25.6 °F 14.0 °F 30.75 in WNW 4.6 mph 4.6 mph 61% 0.00 in 0.0 W/m2
17:55 25.6 °F 13.6 °F 30.75 in WNW 3.5 mph 3.5 mph 60% 0.00 in 0.0 W/m2
18:00 25.6 °F 14.0 °F 30.75 in WNW 3.5 mph 3.5 mph 61% 0.00 in 0.0 W/m2
18:05 25.5 °F 13.5 °F 30.75 in WNW 6.0 mph 6.0 mph 60% 0.00 in 0.0 W/m2
18:10 25.6 °F 13.6 °F 30.76 in WNW 2.0 mph 6.0 mph 60% 0.00 in 0.0 W/m2
18:15 25.5 °F 13.2 °F 30.76 in WNW 2.0 mph 6.0 mph 59% 0.00 in 0.0 W/m2
18:20 25.5 °F 13.1 °F 30.76 in WNW 3.0 mph 6.0 mph 59% 0.00 in 0.0 W/m2
18:25 25.5 °F 13.5 °F 30.76 in WNW 4.6 mph 4.6 mph 60% 0.00 in 0.0 W/m2
18:30 25.5 °F 13.5 °F 30.76 in WNW 3.5 mph 3.5 mph 60% 0.00 in 0.0 W/m2
18:35 25.4 °F 13.4 °F 30.76 in WSW 4.0 mph 4.0 mph 60% 0.00 in 0.0 W/m2
18:40 25.4 °F 13.4 °F 30.76 in WNW 3.0 mph 3.0 mph 60% 0.00 in 0.0 W/m2
18:45 25.5 °F 13.5 °F 30.76 in WNW 3.5 mph 3.5 mph 60% 0.00 in 0.0 W/m2
18:50 25.5 °F 13.5 °F 30.76 in WNW 3.5 mph 3.5 mph 60% 0.00 in 0.0 W/m2
18:55 25.5 °F 13.5 °F 30.76 in WNW 4.6 mph 4.6 mph 60% 0.00 in 0.0 W/m2
19:00 25.5 °F 13.5 °F 30.76 in WNW 4.6 mph 4.6 mph 60% 0.00 in 0.0 W/m2
19:05 25.6 °F 13.6 °F 30.76 in WNW 6.9 mph 6.9 mph 60% 0.00 in 0.0 W/m2
19:10 25.6 °F 13.6 °F 30.76 in WNW 3.5 mph 3.5 mph 60% 0.00 in 0.0 W/m2
19:15 25.6 °F 14.0 °F 30.76 in WNW 2.3 mph 2.3 mph 61% 0.00 in 0.0 W/m2
19:20 25.6 °F 14.0 °F 30.76 in WNW 4.0 mph 4.0 mph 61% 0.00 in 0.0 W/m2
19:25 25.6 °F 14.4 °F 30.77 in West 2.0 mph 5.0 mph 62% 0.00 in 0.0 W/m2
19:30 25.6 °F 14.4 °F 30.77 in WNW 2.3 mph 2.3 mph 62% 0.00 in 0.0 W/m2
19:35 25.6 °F 14.4 °F 30.76 in West 3.5 mph 3.5 mph 62% 0.00 in 0.0 W/m2
19:40 25.6 °F 14.7 °F 30.76 in WNW 2.3 mph 2.3 mph 63% 0.00 in 0.0 W/m2
19:45 25.6 °F 14.4 °F 30.77 in WNW 5.8 mph 5.8 mph 62% 0.00 in 0.0 W/m2
19:50 25.6 °F 14.4 °F 30.77 in WNW 6.9 mph 6.9 mph 62% 0.00 in 0.0 W/m2
19:55 25.6 °F 14.4 °F 30.76 in WNW 3.5 mph 3.5 mph 62% 0.00 in 0.0 W/m2
20:00 25.5 °F 14.3 °F 30.76 in WNW 4.6 mph 4.6 mph 62% 0.00 in 0.0 W/m2
20:05 25.4 °F 14.5 °F 30.76 in WNW 4.6 mph 4.6 mph 63% 0.00 in 0.0 W/m2
20:10 25.4 °F 14.5 °F 30.76 in WNW 2.3 mph 2.3 mph 63% 0.00 in 0.0 W/m2
20:15 25.3 °F 14.8 °F 30.76 in WNW 3.5 mph 3.5 mph 64% 0.00 in 0.0 W/m2
20:20 25.3 °F 14.8 °F 30.76 in WNW 3.5 mph 3.5 mph 64% 0.00 in 0.0 W/m2
20:25 25.2 °F 14.7 °F 30.77 in WNW 1.2 mph 1.2 mph 64% 0.00 in 0.0 W/m2
20:30 25.1 °F 15.0 °F 30.76 in WNW 2.3 mph 2.3 mph 65% 0.00 in 0.0 W/m2
20:35 25.0 °F 14.9 °F 30.76 in West 1.2 mph 1.2 mph 65% 0.00 in 0.0 W/m2
20:40 24.9 °F 14.8 °F 30.77 in WNW 2.3 mph 2.3 mph 65% 0.00 in 0.0 W/m2
20:45 24.8 °F 14.7 °F 30.77 in WNW 2.3 mph 2.3 mph 65% 0.00 in 0.0 W/m2
20:50 24.7 °F 14.6 °F 30.77 in Calm     65% 0.00 in 0.0 W/m2
20:55 24.6 °F 16.5 °F 30.77 in NNE 6.9 mph 6.9 mph 71% 0.00 in 0.0 W/m2
21:00 24.5 °F 17.7 °F 30.77 in North 6.9 mph 6.9 mph 75% 0.00 in 0.0 W/m2
21:05 24.4 °F 18.2 °F 30.77 in NE 6.9 mph 6.9 mph 77% 0.00 in 0.0 W/m2
21:10 24.3 °F 18.4 °F 30.76 in NE 9.2 mph 9.2 mph 78% 0.00 in 0.0 W/m2
21:15 24.2 °F 18.6 °F 30.77 in NNE 5.8 mph 5.8 mph 79% 0.00 in 0.0 W/m2
21:20 24.1 °F 18.5 °F 30.77 in NE 4.6 mph 4.6 mph 79% 0.00 in 0.0 W/m2
21:25 24.0 °F 18.4 °F 30.77 in NNE 4.6 mph 4.6 mph 79% 0.00 in 0.0 W/m2
21:30 24.0 °F 18.7 °F 30.77 in NNE 5.0 mph 5.0 mph 80% 0.00 in 0.0 W/m2
21:35 23.8 °F 18.5 °F 30.76 in NNE 5.8 mph 5.8 mph 80% 0.00 in 0.0 W/m2
21:40 23.8 °F 18.5 °F 30.76 in NE 5.8 mph 5.8 mph 80% 0.00 in 0.0 W/m2
21:45 23.6 °F 18.3 °F 30.76 in NE 4.6 mph 4.6 mph 80% 0.00 in 0.0 W/m2
21:50 23.5 °F 18.5 °F 30.76 in NNE 5.8 mph 5.8 mph 81% 0.00 in 0.0 W/m2
21:55 23.5 °F 18.5 °F 30.76 in East 7.0 mph 7.0 mph 81% 0.00 in 0.0 W/m2
22:00 23.4 °F 18.4 °F 30.76 in NNW 6.9 mph 6.9 mph 81% 0.00 in 0.0 W/m2
22:05 23.3 °F 18.3 °F 30.76 in NE 5.8 mph 5.8 mph 81% 0.00 in 0.0 W/m2
22:10 23.2 °F 18.2 °F 30.76 in NE 3.5 mph 3.5 mph 81% 0.00 in 0.0 W/m2
22:15 23.2 °F 18.2 °F 30.76 in NNE 3.5 mph 3.5 mph 81% 0.00 in 0.0 W/m2
22:20 23.2 °F 18.2 °F 30.76 in NNE 6.0 mph 6.0 mph 81% 0.00 in 0.0 W/m2
22:25 23.2 °F 17.9 °F 30.76 in NE 5.8 mph 5.8 mph 80% 0.00 in 0.0 W/m2
22:30 23.2 °F 17.9 °F 30.76 in NE 6.9 mph 6.9 mph 80% 0.00 in 0.0 W/m2
22:35 23.2 °F 17.9 °F 30.75 in NE 4.6 mph 4.6 mph 80% 0.00 in 0.0 W/m2
22:40 23.1 °F 17.6 °F 30.75 in NNE 6.9 mph 6.9 mph 79% 0.00 in 0.0 W/m2
22:45 23.1 °F 17.6 °F 30.75 in NNE 5.8 mph 5.9 mph 79% 0.00 in 0.0 W/m2
22:50 23.0 °F 17.7 °F 30.75 in NNE 4.6 mph 4.6 mph 80% 0.00 in 0.0 W/m2
22:55 23.0 °F 17.7 °F 30.75 in NNE 6.9 mph 6.9 mph 80% 0.00 in 0.0 W/m2
23:00 23.0 °F 17.5 °F 30.75 in NNE 5.0 mph 5.0 mph 79% 0.00 in 0.0 W/m2
23:05 22.9 °F 17.4 °F 30.74 in NNE 4.0 mph 4.0 mph 79% 0.00 in 0.0 W/m2
23:10 22.9 °F 17.4 °F 30.74 in NE 3.5 mph 3.5 mph 79% 0.00 in 0.0 W/m2
23:15 22.8 °F 17.0 °F 30.74 in NNE 10.4 mph 10.4 mph 78% 0.00 in 0.0 W/m2
23:20 22.7 °F 16.9 °F 30.75 in NE 4.6 mph 4.6 mph 78% 0.00 in 0.0 W/m2
23:25 22.7 °F 16.9 °F 30.74 in ENE 4.0 mph 4.0 mph 78% 0.00 in 0.0 W/m2
23:30 22.7 °F 16.6 °F 30.74 in ENE 4.6 mph 4.6 mph 77% 0.00 in 0.0 W/m2
23:35 22.6 °F 16.5 °F 30.74 in NE 4.6 mph 4.6 mph 77% 0.00 in 0.0 W/m2
23:40 22.6 °F 16.5 °F 30.74 in NE 3.5 mph 3.5 mph 77% 0.00 in 0.0 W/m2
23:45 22.6 °F 16.5 °F 30.74 in NE 5.8 mph 5.8 mph 77% 0.00 in 0.0 W/m2
23:50 22.6 °F 16.5 °F 30.74 in ENE 3.5 mph 3.5 mph 77% 0.00 in 0.0 W/m2
23:55 22.6 °F 16.5 °F 30.74 in NE 6.9 mph 6.9 mph 77% 0.00 in 0.0 W/m2
west seneca weather
Compliments of Weather Underground - 2 mb